アロフィ の空港の天気 - METARとTAF

ニウエ国際空港 ( NIUE / IUE ) - ニウエ アロフィ
飛行場実況気象(Metar)
観測時間01/18 15:00 NUT (01/19 02:00 UTC)
風向・風速北東 4m/s
視程10km以上
天気現象
全天の4割程度の雲 雲底高度 550m
全天の8割程度の雲 雲底高度 3350m
気温30℃
湿度59%
気圧1011hPa
METARNIUE 190200Z 04008KT 350V060 9999 SCT018 BKN110 30/21 Q1011
過去の天気等 Google飛行場航空写真 Wunderground天気予報

過去48時間のMETAR

飛行場予報(TAF)
データがありません